This is the latest recevied weather packets stored in our database for station/object W5HKR. If no packets are shown the sender has not sent any weather packets the latest 10 day(s).
| Time | Temp. | Humidity | Pressure | Rain* | Wind** | Luminosity | Snow |
|---|---|---|---|---|---|---|---|
| 1777787296 | 13.33° C | 85% | 993.6 hPa | 0 mm | - | - | - |
| 1777786996 | 18.33° C | 91% | 990.6 hPa | 0 mm | - | - | - |
| 1777786696 | 13.33° C | 85% | 993.5 hPa | 0 mm | - | - | - |
| 1777786428 | 18.33° C | 91% | 990.6 hPa | 0 mm | - | - | - |
| 1777786396 | 18.33° C | 91% | 990.6 hPa | 0 mm | - | - | - |
| 1777786096 | 13.33° C | 84% | 993.4 hPa | 0 mm | - | - | - |
| 1777785797 | 13.33° C | 83% | 993.6 hPa | 0 mm | - | - | - |
| 1777785498 | 18.33° C | 91% | 990.6 hPa | 0 mm | - | - | - |
| 1777785348 | 13.33° C | 83% | 993.6 hPa | 0 mm | - | - | - |
| 1777785198 | 18.33° C | 91% | 990.6 hPa | 0 mm | - | - | - |
| 1777784896 | 18.33° C | 91% | 990.6 hPa | 0 mm | - | - | - |
| 1777784596 | 13.33° C | 84% | 993.3 hPa | 0 mm | - | - | - |
| 1777784268 | 13.33° C | 84% | 993.6 hPa | 0 mm | - | - | - |
| 1777783996 | 18.33° C | 91% | 990.6 hPa | 0 mm | - | - | - |
| 1777783697 | 13.33° C | 83% | 993.2 hPa | 0 mm | - | - | - |
| 1777783398 | 18.33° C | 91% | 990.6 hPa | 0 mm | - | - | - |
| 1777783187 | 13.33° C | 82% | 993.4 hPa | 0 mm | - | - | - |
| 1777783097 | 18.33° C | 91% | 990.6 hPa | 0 mm | - | - | - |
| 1777782798 | 13.33° C | 82% | 993.5 hPa | 0 mm | - | - | - |
| 1777782497 | 18.33° C | 91% | 990.6 hPa | 0 mm | - | - | - |
| 1777782197 | 13.89° C | 81% | 993.4 hPa | 0 mm | - | - | - |
| 1777782107 | 13.89° C | 81% | 993.2 hPa | 0 mm | - | - | - |
| 1777781898 | 18.33° C | 91% | 990.6 hPa | 0 mm | - | - | - |
| 1777781597 | 13.89° C | 80% | 993.3 hPa | 0 mm | - | - | - |
| 1777781297 | 18.33° C | 91% | 990.6 hPa | 0 mm | - | - | - |
* Rain latest hour (hover to see other rain measurements)
** Current wind speed in m/s (hover to see current wind gust speed)